createdAt,value
2023-03-30T00:00:19.690Z,2.38
2023-03-30T00:02:50.963Z,2.53
2023-03-30T00:05:18.541Z,2.10
2023-03-30T00:07:45.735Z,2.08
2023-03-30T00:10:15.461Z,2.58
2023-03-30T00:12:43.719Z,2.30
2023-03-30T00:15:12.499Z,2.33
2023-03-30T00:17:39.742Z,2.42
2023-03-30T00:20:11.779Z,2.60
2023-03-30T00:22:39.767Z,1.98
2023-03-30T00:25:08.749Z,2.28
2023-03-30T00:27:38.826Z,2.20
2023-03-30T00:30:07.712Z,2.70
2023-03-30T00:32:34.683Z,2.00
2023-03-30T00:35:01.450Z,2.00
2023-03-30T00:37:28.494Z,2.10
2023-03-30T00:39:55.441Z,2.22
2023-03-30T00:42:22.251Z,2.97
2023-03-30T00:45:17.949Z,2.13
2023-03-30T00:47:56.973Z,2.05
2023-03-30T00:50:29.878Z,2.67
2023-03-30T00:52:58.759Z,2.30
2023-03-30T00:55:28.526Z,2.15
2023-03-30T00:57:56.401Z,2.55
2023-03-30T01:00:23.781Z,2.40
2023-03-30T01:02:56.952Z,2.55
2023-03-30T01:05:24.406Z,2.90
2023-03-30T01:07:52.151Z,2.60
2023-03-30T01:10:19.597Z,2.70
2023-03-30T01:12:46.145Z,2.83
2023-03-30T01:15:12.678Z,3.10
2023-03-30T01:17:59.770Z,3.17
2023-03-30T01:21:01.332Z,3.22
2023-03-30T01:23:39.307Z,3.10
2023-03-30T01:26:28.380Z,2.95
2023-03-30T01:29:17.698Z,3.35
2023-03-30T01:32:19.378Z,3.53
2023-03-30T01:35:18.341Z,3.13
2023-03-30T01:37:59.810Z,3.40
2023-03-30T01:40:36.413Z,3.55
2023-03-30T01:43:19.735Z,3.13
2023-03-30T01:45:54.792Z,3.70
2023-03-30T01:48:34.390Z,3.67
2023-03-30T01:51:05.670Z,3.10
2023-03-30T01:53:35.071Z,4.00
2023-03-30T01:56:11.990Z,3.75
2023-03-30T01:58:40.655Z,3.70
2023-03-30T02:01:08.567Z,4.57
2023-03-30T02:03:39.555Z,4.03
2023-03-30T02:06:17.398Z,3.55
2023-03-30T02:08:44.696Z,3.63
2023-03-30T02:11:11.674Z,3.80
2023-03-30T02:13:40.419Z,3.88
2023-03-30T02:16:13.836Z,4.10
2023-03-30T02:18:40.275Z,4.10
2023-03-30T02:21:06.924Z,3.72
2023-03-30T02:23:38.204Z,3.45
2023-03-30T02:26:04.959Z,3.75
2023-03-30T02:28:31.634Z,3.63
2023-03-30T02:30:58.086Z,4.00
2023-03-30T02:33:28.886Z,3.70
2023-03-30T02:36:07.979Z,4.13
2023-03-30T02:38:49.570Z,3.80
2023-03-30T02:41:31.328Z,4.05
2023-03-30T02:44:00.629Z,4.28
2023-03-30T02:46:42.288Z,4.47
2023-03-30T02:49:17.682Z,5.10
2023-03-30T02:51:48.676Z,3.92
2023-03-30T02:54:26.671Z,4.13
2023-03-30T02:57:11.742Z,4.55
2023-03-30T02:59:38.179Z,4.18
2023-03-30T03:02:12.254Z,4.40
2023-03-30T03:04:43.446Z,4.20
2023-03-30T03:07:12.732Z,4.80
2023-03-30T03:09:39.229Z,4.32
2023-03-30T03:12:05.979Z,4.47
2023-03-30T03:14:32.503Z,4.28
2023-03-30T03:16:59.002Z,3.90
2023-03-30T03:19:25.570Z,4.57
2023-03-30T03:21:52.022Z,4.88
2023-03-30T03:24:18.981Z,4.97
2023-03-30T03:26:46.009Z,5.32
2023-03-30T03:29:12.959Z,4.60
2023-03-30T03:31:39.725Z,5.25
2023-03-30T03:34:06.793Z,4.72
2023-03-30T03:36:33.383Z,4.30
2023-03-30T03:38:59.840Z,4.38
2023-03-30T03:41:26.362Z,3.90
2023-03-30T03:43:52.786Z,4.57
2023-03-30T03:46:19.257Z,4.40
2023-03-30T03:48:46.186Z,5.40
2023-03-30T03:51:12.674Z,4.10
2023-03-30T03:53:39.142Z,4.25
2023-03-30T03:56:05.780Z,3.80
2023-03-30T03:58:32.202Z,4.00
2023-03-30T04:01:00.699Z,3.92
2023-03-30T04:03:27.966Z,3.70
2023-03-30T04:05:57.642Z,4.20
2023-03-30T04:08:26.410Z,4.00
2023-03-30T04:10:52.935Z,4.35
2023-03-30T04:13:19.446Z,4.20
2023-03-30T04:15:45.900Z,3.78
2023-03-30T04:18:12.750Z,3.50
2023-03-30T04:20:39.322Z,3.45
2023-03-30T04:23:05.767Z,3.53
2023-03-30T04:25:32.188Z,3.63
2023-03-30T04:27:58.608Z,3.85
2023-03-30T04:30:25.200Z,4.20
2023-03-30T04:33:02.774Z,3.83
2023-03-30T04:35:33.763Z,4.38
2023-03-30T04:38:02.107Z,3.95
2023-03-30T04:40:28.913Z,3.90
2023-03-30T04:42:55.600Z,3.97
2023-03-30T04:45:22.130Z,4.05
2023-03-30T04:47:48.667Z,3.80
2023-03-30T04:50:15.653Z,3.90
2023-03-30T04:52:42.117Z,4.07
2023-03-30T04:55:09.892Z,3.70
2023-03-30T04:57:36.448Z,3.75
2023-03-30T05:00:09.961Z,3.70
2023-03-30T05:02:36.622Z,4.03
2023-03-30T05:05:03.260Z,3.83
2023-03-30T05:07:29.766Z,3.83
2023-03-30T05:09:56.209Z,4.10
2023-03-30T05:12:22.680Z,6.13
2023-03-30T05:14:49.119Z,4.20
2023-03-30T05:17:15.960Z,4.07
2023-03-30T05:19:42.648Z,4.00
2023-03-30T05:22:09.164Z,3.90
2023-03-30T05:24:35.635Z,3.97
2023-03-30T05:27:02.814Z,3.83
2023-03-30T05:29:29.225Z,4.00
2023-03-30T05:31:55.753Z,3.90
2023-03-30T05:34:22.198Z,4.38
2023-03-30T05:36:48.709Z,3.78
2023-03-30T05:39:15.295Z,4.30
2023-03-30T05:41:41.700Z,4.32
2023-03-30T05:44:08.105Z,4.10
2023-03-30T05:46:34.609Z,4.53
2023-03-30T05:49:01.147Z,4.63
2023-03-30T05:51:27.637Z,3.95
2023-03-30T05:53:54.041Z,4.53
2023-03-30T05:56:21.522Z,4.40
2023-03-30T05:58:47.941Z,4.07
2023-03-30T06:01:14.397Z,4.25
2023-03-30T06:03:42.075Z,4.30
2023-03-30T06:06:09.254Z,4.28
2023-03-30T06:08:36.766Z,3.97
2023-03-30T06:11:04.305Z,4.22
2023-03-30T06:13:31.719Z,4.40
2023-03-30T06:15:59.174Z,4.13
2023-03-30T06:18:27.381Z,4.10
2023-03-30T06:20:53.763Z,4.80
2023-03-30T06:23:20.240Z,4.60
2023-03-30T06:25:52.505Z,4.32
2023-03-30T06:28:20.420Z,4.10
2023-03-30T06:30:49.077Z,4.18
2023-03-30T06:33:16.606Z,3.88
2023-03-30T06:35:50.977Z,3.90
2023-03-30T06:38:19.226Z,3.70
2023-03-30T06:40:45.965Z,3.70
2023-03-30T06:43:18.344Z,3.30
2023-03-30T06:45:56.973Z,3.40
2023-03-30T06:48:24.425Z,3.53
2023-03-30T06:50:52.090Z,3.80
2023-03-30T06:53:19.967Z,3.80
2023-03-30T06:55:59.888Z,3.85
2023-03-30T06:58:27.544Z,4.07
2023-03-30T07:00:54.422Z,3.78
2023-03-30T07:03:21.894Z,3.50
2023-03-30T07:05:50.196Z,3.67
2023-03-30T07:08:18.771Z,3.42
2023-03-30T07:10:47.496Z,3.55
2023-03-30T07:13:13.939Z,3.50
2023-03-30T07:15:40.776Z,3.35
2023-03-30T07:18:07.262Z,2.80
2023-03-30T07:20:33.772Z,3.50
2023-03-30T07:23:00.375Z,3.20
2023-03-30T07:25:27.042Z,3.40
2023-03-30T07:27:53.648Z,3.45
2023-03-30T07:30:22.845Z,3.10
2023-03-30T07:32:51.016Z,3.38
2023-03-30T07:35:18.343Z,3.00
2023-03-30T07:37:45.114Z,2.90
2023-03-30T07:40:12.848Z,2.90
2023-03-30T07:42:39.566Z,3.10
2023-03-30T07:45:06.817Z,3.28
2023-03-30T07:47:33.314Z,3.08
2023-03-30T07:49:59.822Z,2.80
2023-03-30T07:52:26.355Z,2.75
2023-03-30T07:54:54.601Z,2.67
2023-03-30T07:57:22.064Z,2.55
2023-03-30T07:59:49.076Z,2.42
2023-03-30T08:02:15.605Z,2.30
2023-03-30T08:04:43.885Z,2.40
2023-03-30T08:07:11.286Z,2.40
2023-03-30T08:09:38.080Z,2.20
2023-03-30T08:12:04.803Z,2.00
2023-03-30T08:14:31.381Z,2.03
2023-03-30T08:16:57.784Z,2.15
2023-03-30T08:19:25.530Z,2.17
2023-03-30T08:21:51.970Z,1.85
2023-03-30T08:24:18.399Z,1.70
2023-03-30T08:26:44.806Z,2.03
2023-03-30T08:29:12.937Z,1.80
2023-03-30T08:31:39.476Z,1.98
2023-03-30T08:34:07.107Z,1.90
2023-03-30T08:36:33.606Z,1.88
2023-03-30T08:39:00.313Z,1.90
2023-03-30T08:41:29.401Z,1.70
2023-03-30T08:43:58.688Z,1.83
2023-03-30T08:46:25.768Z,1.88
2023-03-30T08:48:53.551Z,1.70
2023-03-30T08:51:25.537Z,1.63
2023-03-30T08:53:56.835Z,2.03
2023-03-30T08:56:39.705Z,1.75
2023-03-30T08:59:36.805Z,1.60
2023-03-30T09:02:20.561Z,1.52
2023-03-30T09:05:09.582Z,1.67
2023-03-30T09:07:54.146Z,1.50
2023-03-30T09:10:22.773Z,1.92
2023-03-30T09:12:52.567Z,1.80
2023-03-30T09:15:32.182Z,1.73
2023-03-30T09:18:19.791Z,2.30
2023-03-30T09:20:48.270Z,1.55
2023-03-30T09:23:18.178Z,1.92
2023-03-30T09:26:01.491Z,1.75
2023-03-30T09:29:00.870Z,1.60
2023-03-30T09:31:40.639Z,1.38
2023-03-30T09:34:36.153Z,1.42
2023-03-30T09:37:21.677Z,1.75
2023-03-30T09:39:52.329Z,1.75
2023-03-30T09:42:22.769Z,1.70
2023-03-30T09:44:55.225Z,1.70
2023-03-30T09:47:38.067Z,1.83
2023-03-30T09:50:10.143Z,1.55
2023-03-30T09:52:40.443Z,1.80
2023-03-30T09:55:31.558Z,1.38
2023-03-30T09:58:20.399Z,1.70
2023-03-30T10:01:00.726Z,1.70
2023-03-30T10:03:27.827Z,1.70
2023-03-30T10:06:09.833Z,1.70
2023-03-30T10:08:48.298Z,1.70
2023-03-30T10:11:20.302Z,1.65
2023-03-30T10:13:50.280Z,1.80
2023-03-30T10:16:27.142Z,1.77
2023-03-30T10:18:59.020Z,1.67
2023-03-30T10:21:30.655Z,1.65
2023-03-30T10:24:25.056Z,1.60
2023-03-30T10:27:07.459Z,1.83
2023-03-30T10:29:33.907Z,1.83
2023-03-30T10:32:23.076Z,1.77
2023-03-30T10:34:55.709Z,1.35
2023-03-30T10:37:51.467Z,1.50
2023-03-30T10:40:23.536Z,1.65
2023-03-30T10:42:55.462Z,1.50
2023-03-30T10:45:41.032Z,1.52
2023-03-30T10:48:27.933Z,1.35
2023-03-30T10:51:09.315Z,1.30
2023-03-30T10:53:45.723Z,1.33
2023-03-30T10:56:26.154Z,1.48
2023-03-30T10:59:11.631Z,1.90
2023-03-30T11:02:11.913Z,1.20
2023-03-30T11:04:43.481Z,1.55
2023-03-30T11:07:29.837Z,1.92
2023-03-30T11:10:04.904Z,1.38
2023-03-30T11:12:39.186Z,1.50
2023-03-30T11:15:35.992Z,1.92
2023-03-30T11:18:09.406Z,1.70
2023-03-30T11:20:43.390Z,1.48
2023-03-30T11:23:18.468Z,1.60
2023-03-30T11:26:02.781Z,1.40
2023-03-30T11:28:48.279Z,1.63
2023-03-30T11:31:30.398Z,1.40
2023-03-30T11:34:02.611Z,1.65
2023-03-30T11:36:40.239Z,1.70
2023-03-30T11:39:28.807Z,1.90
2023-03-30T11:42:09.064Z,1.45
2023-03-30T11:44:36.606Z,1.55
2023-03-30T11:47:36.926Z,1.55
2023-03-30T11:50:12.435Z,1.58
2023-03-30T11:53:05.267Z,1.38
2023-03-30T11:55:47.270Z,1.50
2023-03-30T11:58:45.162Z,1.60
2023-03-30T12:01:29.666Z,1.70
2023-03-30T12:04:04.277Z,1.77
2023-03-30T12:06:33.621Z,2.00
2023-03-30T12:09:29.018Z,2.00
2023-03-30T12:11:55.433Z,1.77
2023-03-30T12:14:31.416Z,1.77
2023-03-30T12:17:02.799Z,1.90
2023-03-30T12:19:55.657Z,1.50
2023-03-30T12:22:23.090Z,1.83
2023-03-30T12:25:12.468Z,1.80
2023-03-30T12:28:02.126Z,1.83
2023-03-30T12:30:31.858Z,1.60
2023-03-30T12:33:01.386Z,1.80
2023-03-30T12:35:48.977Z,2.03
2023-03-30T12:38:19.214Z,1.70
2023-03-30T12:41:03.731Z,1.55
2023-03-30T12:43:42.559Z,1.63
2023-03-30T12:46:28.575Z,1.70
2023-03-30T12:49:11.766Z,1.60
2023-03-30T12:52:02.724Z,2.50
2023-03-30T12:54:39.791Z,1.90
2023-03-30T12:57:12.277Z,2.13
2023-03-30T13:00:12.100Z,2.17
2023-03-30T13:02:51.618Z,2.22
2023-03-30T13:05:44.952Z,2.35
2023-03-30T13:08:36.962Z,2.05
2023-03-30T13:11:19.801Z,1.65
2023-03-30T13:13:52.859Z,2.05
2023-03-30T13:16:48.906Z,1.75
2023-03-30T13:19:33.458Z,1.90
2023-03-30T13:22:12.205Z,1.45
2023-03-30T13:24:41.252Z,1.83
2023-03-30T13:27:11.069Z,1.52
2023-03-30T13:29:37.807Z,1.52
2023-03-30T13:32:09.447Z,1.40
2023-03-30T13:34:44.911Z,1.73
2023-03-30T13:37:27.457Z,1.73
2023-03-30T13:40:21.668Z,1.77
2023-03-30T13:43:21.197Z,1.90
2023-03-30T13:46:16.257Z,1.88
2023-03-30T13:49:02.745Z,1.85
2023-03-30T13:51:30.669Z,1.85
2023-03-30T13:54:02.429Z,1.90
2023-03-30T13:56:35.958Z,1.83
2023-03-30T13:59:26.134Z,2.25
2023-03-30T14:01:56.532Z,2.05
2023-03-30T14:04:24.032Z,2.50
2023-03-30T14:06:52.384Z,2.65
2023-03-30T14:09:24.869Z,2.33
2023-03-30T14:11:55.556Z,2.08
2023-03-30T14:14:25.369Z,1.98
2023-03-30T14:16:52.098Z,1.80
2023-03-30T14:19:26.354Z,2.00
2023-03-30T14:21:58.025Z,1.88
2023-03-30T14:24:33.301Z,1.95
2023-03-30T14:27:07.589Z,1.98
2023-03-30T14:29:34.329Z,1.70
2023-03-30T14:34:33.681Z,1.70
2023-03-30T14:37:03.559Z,1.67
2023-03-30T14:39:32.269Z,2.03
2023-03-30T14:42:09.167Z,1.73
2023-03-30T14:44:40.811Z,1.58
2023-03-30T14:47:07.832Z,1.30
2023-03-30T14:49:35.190Z,1.60
2023-03-30T14:52:20.487Z,1.85
2023-03-30T14:55:05.317Z,2.60
2023-03-30T14:57:37.978Z,1.70
2023-03-30T15:00:18.249Z,2.00
2023-03-30T15:02:46.384Z,1.73
2023-03-30T15:05:17.391Z,1.73
2023-03-30T15:07:47.914Z,2.00
2023-03-30T15:10:22.958Z,2.40
2023-03-30T15:12:51.271Z,2.40
2023-03-30T15:15:24.265Z,2.08
2023-03-30T15:17:51.331Z,2.10
2023-03-30T15:20:18.955Z,2.03
2023-03-30T15:22:48.464Z,2.47
2023-03-30T15:25:19.198Z,2.13
2023-03-30T15:27:58.118Z,2.38
2023-03-30T15:30:30.382Z,2.28
2023-03-30T15:32:57.662Z,2.05
2023-03-30T15:35:28.539Z,2.63
2023-03-30T15:38:18.998Z,2.10
2023-03-30T15:40:50.142Z,1.00
2023-03-30T15:43:29.385Z,1.00
2023-03-30T15:45:57.358Z,0.70
2023-03-30T15:48:28.784Z,1.15
2023-03-30T15:51:03.170Z,1.00
2023-03-30T15:54:12.934Z,2.25
2023-03-30T15:56:56.906Z,1.30
2023-03-30T15:59:29.205Z,1.00
2023-03-30T16:02:01.028Z,1.30
2023-03-30T16:04:31.267Z,1.13
2023-03-30T16:06:58.057Z,1.48
2023-03-30T16:09:24.574Z,1.52
2023-03-30T16:11:51.193Z,1.60
2023-03-30T16:14:22.556Z,1.60
2023-03-30T16:16:49.232Z,1.40
2023-03-30T16:19:18.153Z,1.60
2023-03-30T16:21:45.605Z,1.48
2023-03-30T16:24:12.729Z,8.35
2023-03-30T16:26:39.569Z,2.45
2023-03-30T16:29:18.219Z,1.92
2023-03-30T16:31:44.719Z,2.22
2023-03-30T16:34:11.294Z,1.90
2023-03-30T16:36:37.878Z,1.90
2023-03-30T16:39:06.949Z,2.45
2023-03-30T16:41:33.346Z,2.28
2023-03-30T16:43:59.773Z,2.50
2023-03-30T16:46:26.266Z,2.65
2023-03-30T16:48:52.714Z,2.20
2023-03-30T16:51:19.885Z,2.55
2023-03-30T16:53:47.656Z,1.90
2023-03-30T16:56:18.574Z,2.50
2023-03-30T16:58:46.132Z,2.20
2023-03-30T17:01:15.799Z,1.60
2023-03-30T17:03:42.354Z,1.70
2023-03-30T17:06:08.835Z,2.10
2023-03-30T17:08:35.515Z,2.17
2023-03-30T17:11:07.679Z,1.20
2023-03-30T17:13:34.925Z,1.30
2023-03-30T17:16:02.750Z,0.90
2023-03-30T17:18:29.592Z,0.70
2023-03-30T17:21:01.206Z,0.90
2023-03-30T17:23:29.854Z,1.10
2023-03-30T17:25:58.397Z,1.20
2023-03-30T17:28:27.138Z,0.85
2023-03-30T17:30:56.034Z,0.80
2023-03-30T17:33:22.994Z,1.00
2023-03-30T17:36:01.637Z,0.80
2023-03-30T17:38:30.130Z,0.88
2023-03-30T17:40:56.850Z,1.00
2023-03-30T17:43:23.365Z,1.00
2023-03-30T17:45:50.021Z,1.00
2023-03-30T17:48:19.188Z,1.17
2023-03-30T17:50:49.226Z,1.15
2023-03-30T17:53:18.739Z,1.40
2023-03-30T17:55:47.194Z,1.35
2023-03-30T17:58:34.352Z,1.20
2023-03-30T18:01:03.655Z,1.35
2023-03-30T18:03:30.375Z,1.30
2023-03-30T18:05:58.960Z,1.45
2023-03-30T18:08:27.111Z,1.30
2023-03-30T18:11:03.145Z,1.17
2023-03-30T18:13:30.784Z,1.60
2023-03-30T18:15:59.220Z,1.40
2023-03-30T18:18:28.467Z,1.80
2023-03-30T18:20:56.166Z,1.70
2023-03-30T18:23:23.052Z,1.40
2023-03-30T18:25:50.218Z,1.60
2023-03-30T18:28:20.517Z,1.30
2023-03-30T18:30:47.361Z,1.60
2023-03-30T18:33:16.646Z,1.58
2023-03-30T18:35:45.526Z,1.50
2023-03-30T18:38:13.774Z,1.17
2023-03-30T18:40:45.233Z,1.85
2023-03-30T18:43:12.683Z,1.30
2023-03-30T18:45:41.474Z,1.30
2023-03-30T18:48:11.245Z,1.33
2023-03-30T18:50:39.067Z,1.30
2023-03-30T18:53:11.276Z,1.08
2023-03-30T18:55:40.026Z,1.75
2023-03-30T18:58:13.589Z,1.15
2023-03-30T19:00:40.339Z,1.25
2023-03-30T19:03:06.795Z,1.88
2023-03-30T19:05:34.184Z,1.50
2023-03-30T19:08:01.352Z,1.30
2023-03-30T19:10:30.494Z,1.35
2023-03-30T19:12:57.327Z,1.70
2023-03-30T19:15:35.490Z,1.45
2023-03-30T19:18:04.332Z,1.48
2023-03-30T19:20:33.324Z,1.30
2023-03-30T19:22:59.897Z,2.03
2023-03-30T19:25:28.085Z,1.20
2023-03-30T19:28:03.050Z,1.45
2023-03-30T19:30:32.337Z,1.30
2023-03-30T19:33:01.337Z,1.20
2023-03-30T19:35:28.985Z,0.90
2023-03-30T19:37:55.745Z,1.00
2023-03-30T19:40:22.730Z,1.02
2023-03-30T19:42:49.659Z,0.90
2023-03-30T19:45:19.035Z,0.90
2023-03-30T19:47:45.875Z,1.00
2023-03-30T19:50:17.911Z,1.10
2023-03-30T19:52:47.085Z,1.00
2023-03-30T19:55:14.218Z,1.10
2023-03-30T19:57:40.784Z,1.00
2023-03-30T20:00:15.265Z,1.23
2023-03-30T20:02:44.616Z,1.23
2023-03-30T20:05:12.802Z,1.10
2023-03-30T20:07:39.771Z,1.08
2023-03-30T20:10:07.677Z,1.23
2023-03-30T20:12:35.140Z,1.30
2023-03-30T20:15:04.627Z,1.05
2023-03-30T20:17:31.388Z,1.40
2023-03-30T20:20:06.455Z,1.23
2023-03-30T20:22:34.660Z,1.17
2023-03-30T20:25:02.466Z,1.40
2023-03-30T20:27:28.970Z,1.40
2023-03-30T20:29:55.503Z,1.27
2023-03-30T20:32:22.016Z,1.55
2023-03-30T20:34:49.290Z,1.85
2023-03-30T20:37:16.191Z,1.45
2023-03-30T20:39:43.206Z,1.77
2023-03-30T20:42:10.068Z,1.50
2023-03-30T20:44:39.479Z,1.50
2023-03-30T20:47:08.565Z,1.60
2023-03-30T20:49:35.546Z,1.90
2023-03-30T20:52:02.347Z,1.73
2023-03-30T20:54:30.388Z,1.58
2023-03-30T20:56:56.865Z,1.90
2023-03-30T20:59:23.347Z,1.63
2023-03-30T21:01:51.953Z,1.60
2023-03-30T21:04:19.482Z,1.70
2023-03-30T21:06:46.802Z,1.38
2023-03-30T21:09:13.587Z,1.40
2023-03-30T21:11:40.466Z,1.60
2023-03-30T21:14:08.079Z,1.58
2023-03-30T21:16:37.890Z,1.30
2023-03-30T21:19:05.629Z,1.27
2023-03-30T21:21:33.832Z,1.80
2023-03-30T21:24:01.709Z,1.20
2023-03-30T21:26:31.441Z,1.75
2023-03-30T21:28:57.901Z,1.23
2023-03-30T21:31:24.615Z,1.52
2023-03-30T21:33:51.286Z,1.13
2023-03-30T21:36:17.965Z,1.65
2023-03-30T21:38:44.518Z,1.70
2023-03-30T21:41:14.055Z,1.40
2023-03-30T21:43:44.108Z,1.60
2023-03-30T21:46:13.768Z,2.17
2023-03-30T21:48:42.323Z,1.77
2023-03-30T21:51:15.905Z,1.70
2023-03-30T21:53:43.972Z,1.65
2023-03-30T21:56:11.986Z,1.63
2023-03-30T21:58:39.502Z,1.58
2023-03-30T22:01:12.292Z,2.13
2023-03-30T22:03:40.892Z,2.17
2023-03-30T22:06:09.381Z,2.33
2023-03-30T22:08:36.145Z,2.47
2023-03-30T22:11:04.618Z,2.70
2023-03-30T22:13:31.271Z,2.47
2023-03-30T22:16:03.732Z,2.47
2023-03-30T22:18:30.681Z,2.67
2023-03-30T22:21:01.646Z,2.67
2023-03-30T22:23:28.920Z,2.97
2023-03-30T22:25:55.714Z,2.70
2023-03-30T22:28:22.522Z,2.92
2023-03-30T22:30:49.262Z,2.70
2023-03-30T22:33:17.321Z,3.17
2023-03-30T22:35:46.083Z,3.03
2023-03-30T22:38:13.528Z,3.00
2023-03-30T22:40:41.909Z,3.03
2023-03-30T22:43:10.482Z,3.25
2023-03-30T22:45:37.630Z,3.10
2023-03-30T22:48:04.990Z,3.88
2023-03-30T22:50:31.708Z,3.00
2023-03-30T22:52:58.187Z,3.70
2023-03-30T22:55:24.777Z,3.78
2023-03-30T22:57:53.395Z,4.10
2023-03-30T23:00:21.046Z,4.57
2023-03-30T23:02:49.831Z,4.32
2023-03-30T23:05:16.940Z,3.85
2023-03-30T23:07:48.103Z,3.72
2023-03-30T23:10:18.028Z,3.70
2023-03-30T23:12:45.504Z,4.18
2023-03-30T23:15:12.926Z,3.85
2023-03-30T23:17:40.731Z,3.60
2023-03-30T23:20:10.176Z,3.67
2023-03-30T23:22:37.833Z,3.33
2023-03-30T23:25:05.891Z,3.50
2023-03-30T23:27:32.504Z,3.60
2023-03-30T23:29:58.984Z,4.30
2023-03-30T23:32:25.694Z,3.35
2023-03-30T23:34:52.151Z,3.55
2023-03-30T23:37:18.629Z,3.40
2023-03-30T23:39:45.364Z,3.35
2023-03-30T23:42:11.756Z,3.63
2023-03-30T23:44:38.141Z,3.70
2023-03-30T23:47:04.690Z,4.15
2023-03-30T23:49:31.334Z,3.72
2023-03-30T23:51:57.812Z,4.38
2023-03-30T23:54:24.317Z,3.90
2023-03-30T23:56:57.168Z,4.13
2023-03-30T23:59:24.944Z,4.25
